Flight Track Log - Related Links

Times and Time Zones

All times are in EDT time to prevent confusion due to time zone crossing. See the CPZ5746 flight status page for this flight to view local times or setup timezone preferences in your user account.

Time Position Orientation Groundspeed Altitude Reporting Facility
EDT Latitude Longitude Course Direction KTS MPH feet Rate Location/Type
Tue 05:20:21 PM 36.1500 -86.6667 North 159 183 1,300  Level Nashville TRACON
Tue 05:21:10 PM 36.1833 -86.6500 22° Northeast 160 184 2,700 1,872 Climbing Nashville TRACON
Tue 05:22:10 PM 36.2333 -86.6333 15° North 238 274 4,700 2,500 Climbing Nashville TRACON
Tue 05:22:58 PM 36.3000 -86.6500 349° North 270 311 7,200 2,873 Climbing Nashville TRACON
Tue 05:23:00 PM 36.5123 -86.7162 355° North  Level FlightAware Approximate
Tue 05:23:21 PM 36.3269 -86.6758 322° Northwest 269 310 8,100  Level Memphis Center
Tue 05:24:00 PM 36.6106 -86.7333 North  Level FlightAware Approximate
Tue 05:24:21 PM 36.4000 -86.6803 357° North 291 335 10,600  Level Memphis Center
Tue 05:25:00 PM 36.7102 -86.7333 North  Level FlightAware Approximate
Tue 05:25:21 PM 36.4883 -86.7047 347° North 302 348 12,400  Level Memphis Center
Tue 05:26:21 PM 36.5828 -86.7314 347° North 328 377 15,100 2,450 Climbing Memphis Center
Tue 05:27:21 PM 36.6789 -86.7400 356° North 341 392 17,300 2,150 Climbing Memphis Center
Tue 05:28:21 PM 36.7811 -86.7433 359° North 356 410 19,400 2,067 Climbing Memphis Center
Tue 05:29:20 PM 36.8836 -86.7517 356° North 369 425 21,400 1,775 Climbing Memphis Center
Tue 05:31:10 PM 37.0789 -86.7647 357° North 387 445 24,400 1,570 Climbing Indianapolis Center
Tue 05:32:12 PM 37.1908 -86.7758 355° North 396 456 25,900 1,355 Climbing Indianapolis Center
Tue 05:33:14 PM 37.3061 -86.7842 357° North 408 470 27,200 1,161 Climbing Indianapolis Center
Tue 05:34:16 PM 37.4208 -86.7719 North 409 471 28,300 1,065 Climbing Indianapolis Center
Tue 05:35:18 PM 37.5369 -86.7528 North 420 483 29,400 1,161 Climbing Indianapolis Center
Tue 05:36:20 PM 37.6533 -86.7336 North 421 484 30,700 1,258 Climbing Indianapolis Center
Tue 05:37:22 PM 37.7678 -86.7150 North 415 478 32,000 1,104 Climbing Indianapolis Center
Tue 05:38:25 PM 37.9053 -86.6944 North 414 476 33,000 480 Climbing Indianapolis Center
Tue 05:39:27 PM 38.0197 -86.6747 North 416 479 33,000  Level Indianapolis Center
Tue 05:40:29 PM 38.1336 -86.6564 North 414 476 33,000  Level Indianapolis Center
Tue 05:41:31 PM 38.2494 -86.6356 North 422 486 33,000  Level Indianapolis Center
Tue 05:42:33 PM 38.3650 -86.6169 North 422 486 33,000  Level Indianapolis Center
Tue 05:43:35 PM 38.5050 -86.5922 North 424 488 33,000  Level Indianapolis Center
Tue 05:44:37 PM 38.6219 -86.5725 North 425 489 33,000  Level Indianapolis Center
Tue 05:45:39 PM 38.7406 -86.5531 North 429 494 33,000  Level Indianapolis Center
Tue 05:46:41 PM 38.8578 -86.5336 North 425 489 33,000  Level Indianapolis Center
Tue 05:47:43 PM 38.9819 -86.5125 North 428 493 33,000  Level Indianapolis Center
Tue 05:48:45 PM 39.0994 -86.4919 North 427 491 33,000  Level Indianapolis Center
Tue 05:49:47 PM 39.2189 -86.4828 North 435 501 33,000  Level Indianapolis Center
Tue 05:50:49 PM 39.3367 -86.5153 348° North 432 497 33,000  Level Indianapolis Center
Tue 05:51:51 PM 39.4786 -86.5550 348° North 434 499 33,000  Level Indianapolis Center
Tue 05:52:53 PM 39.5983 -86.5911 347° North 437 503 33,000  Level Indianapolis Center
Tue 05:53:55 PM 39.7144 -86.5567 13° North 433 498 33,000  Level Indianapolis Center
Tue 05:54:57 PM 39.8086 -86.4583 39° Northeast 427 491 33,000  Level Indianapolis Center
Tue 05:55:59 PM 39.9025 -86.3589 39° Northeast 426 490 33,000  Level Indianapolis Center
Tue 05:56:22 PM 39.9403 -86.3189 39° Northeast 429 494 33,000  Level Chicago Center
Tue 05:57:25 PM 40.0322 -86.2203 39° Northeast 427 491 33,000 -432 Level Chicago Center
Tue 05:58:27 PM 40.1244 -86.1217 39° Northeast 429 494 32,100 -919 Descending Chicago Center
Tue 05:59:29 PM 40.2150 -86.0233 40° Northeast 424 488 31,100 -968 Descending Chicago Center
Tue 06:00:31 PM 40.3056 -85.9261 39° Northeast 422 486 30,100 -1,065 Descending Chicago Center
Tue 06:01:33 PM 40.4342 -85.8700 18° North 420 483 28,900 -1,113 Descending Chicago Center
Tue 06:02:35 PM 40.5358 -85.8044 26° Northeast 425 489 27,800 -1,210 Descending Chicago Center
Tue 06:03:37 PM 40.6244 -85.6883 45° Northeast 448 516 26,400 -1,452 Descending Chicago Center
Tue 06:04:39 PM 40.7178 -85.5572 47° Northeast 445 512 24,800 -1,161 Descending Chicago Center
Tue 06:05:41 PM 40.7997 -85.4433 46° Northeast 434 499 24,000 -726 Descending Chicago Center
Tue 06:06:43 PM 40.8808 -85.3297 47° Northeast 429 494 23,300 -720 Descending Chicago Center
Tue 06:07:46 PM 40.9583 -85.2136 49° Northeast 425 489 22,500 -768 Descending Chicago Center
Tue 06:08:48 PM 41.0458 -85.1144 41° Northeast 420 483 21,700 -726 Descending Chicago Center
Tue 06:09:50 PM 41.1525 -85.0017 39° Northeast 414 476 21,000 -339 Descending Chicago Center
Tue 06:10:52 PM 41.2411 -84.9056 39° Northeast 414 476 21,000  Level Chicago Center
Tue 06:11:54 PM 41.3294 -84.8106 39° Northeast 412 474 21,000  Level Chicago Center
Tue 06:12:56 PM 41.4122 -84.7447 31° Northeast 356 410 21,000  Level Chicago Center
Tue 06:14:00 PM 41.5017 -84.7047 19° North 340 391 21,000 -242 Level Chicago Center
Tue 06:15:00 PM 41.6058 -84.6464 23° Northeast 341 392 20,500 -743 Descending Chicago Center
Tue 06:15:45 PM 41.6725 -84.6033 26° Northeast 343 395 19,700 -1,086 Descending Cleveland Center
Tue 06:16:45 PM 41.7178 -84.5003 59° Northeast 318 366 18,600 -1,350 Descending Cleveland Center
Tue 06:17:45 PM 41.7447 -84.3850 73° East 308 354 17,000 -1,608 Descending Cleveland Center
Tue 06:18:22 PM 41.7614 -84.3192 71° East 318 366 16,000 -1,600 Descending Cleveland Center
Tue 06:18:45 PM 41.7733 -84.2753 70° East 308 354 15,400 -1,446 Descending Cleveland Center
Tue 06:19:45 PM 41.7931 -84.1761 75° East 308 354 14,000 -1,500 Descending Cleveland Center
Tue 06:20:25 PM 41.8100 -84.1019 73° East 292 336 12,900 -1,500 Descending Cleveland Center
Tue 06:20:45 PM 41.8172 -84.0717 72° East 297 342 12,500 -740 Descending Cleveland Center
Tue 06:21:38 PM 41.8692 -84.0047 44° Northeast 256 295 12,000 -1,000 Descending Cleveland Center
Tue 06:22:39 PM 41.9247 -83.9603 31° Northeast 241 277 10,600 -1,415 Descending Cleveland Center
Tue 06:23:41 PM 41.9828 -83.9047 35° Northeast 239 275 9,100 -1,538 Descending Cleveland Center
Tue 06:24:36 PM 41.9681 -83.8314 105° East 226 260 7,600 -1,077 Descending Cleveland Center
Tue 06:25:38 PM 41.9261 -83.7678 132° Southeast 226 260 7,000 -308 Descending Cleveland Center
Tue 06:26:33 PM 41.8900 -83.7131 132° Southeast 214 246 7,000 -776 Level Cleveland Center
Tue 06:27:34 PM 41.8961 -83.6433 83° East 204 235 5,500 -889 Descending Cleveland Center
Tue 06:28:48 PM 41.9353 -83.5839 48° Northeast 182 209 5,000 -222 Descending Cleveland Center
Tue 06:29:49 PM 41.9800 -83.5469 32° Northeast 181 208 5,000 -197 Level Cleveland Center
Tue 06:30:50 PM 42.0247 -83.5153 28° Northeast 178 205 4,600 -667 Descending Cleveland Center
Tue 06:31:46 PM 42.0650 -83.4864 28° Northeast 170 196 3,700 -964 Descending Cleveland Center

Login

Don't have an account? Register now (free) for customized features, flight alerts, and more!